Terminal Aerodrome Forecast
Issued by NWS

Current Version | Previous Version | Text Only | Print | Product List | Glossary On
Versions: 1 2 3 4 5 6 7 8 9 10 11 12 13 14 15 16 17 18 19 20 21 22 23 24 25 26 27 28
000
FTUS43 KGLD 152329
TAFMCK
TAF
KMCK 152329Z 1600/1624 09006KT P6SM SKC
     FM160400 VRB05KT P6SM FEW030
     FM161000 16008KT 6SM BR OVC015
     FM161700 19010KT P6SM SCT015 BKN030
     FM162000 19008KT P6SM SCT030=

USA.gov is the U.S. government's official web portal to all federal, state and local government web resources and services.